首页
METAR-TAF:

METAR-TAF

机场 :

格林贝, 威斯康辛州, 美国

纬度: 44-28-46N, 经度: 088-08-12W, 海拔: 211米

当前天气观测

该预报发布于42分钟前的18:02 UTC
风速13节,风向东北
温度 4°C
湿度 93%
气压 1009 hPa
能見度: 2.8公里
阴天层高于400英尺
轻雾

METAR: KGRB 281802Z 05013KT 1 3/4SM BR OVC004 04/03 A2981 RMK AO2 T00390028

时间: 13:44 (18:44 UTC)

预报

该预报发布于1小时和12分钟前的17:32 UTC
预报有效从28日的 18点(UTC)到 29日的 18点(UTC)
风速13节,风向东北,有时为18节阵风
能見度: 3.2公里
散云层高于700英尺
阴天层高于1200英尺
轻雾
短暂存在
从 28日的 18点(UTC)到 28日的 22点(UTC)
能見度: 8.0公里
多云层高于700英尺
小雨, 轻雾
从 28日的 2200点(UTC)
风速15节,风向东北,有时为22节阵风
能見度: 4.8公里
阴天层高于500英尺
雨, 轻雾
从 29日的 0100点(UTC)
风速16节,风向东转东北,有时为24节阵风
能見度: 2.4公里
阴天层高于500英尺
雨, 轻雾
从 29日的 0400点(UTC)
风速11节,风向东转东北,有时为17节阵风
能見度: 1.6公里
阴天层高于600英尺
雨, 轻雾
从 29日的 0800点(UTC)
风速7节,风向
能見度: 1.6公里
多云层高于600英尺
小雨, 轻雾
从 29日的 1100点(UTC)
风速8节,风向东转东南
能見度: 1.6公里
阴天层高于600英尺
小雨, 轻雾
从 29日的 1500点(UTC)
风速8节,风向西南
能見度: 1.6公里
阴天层高于800英尺
小雨, 轻雾

TAF: KGRB 281732Z 2818/2918 05013G18KT 2SM BR SCT007 OVC012 TEMPO 2818/2822 5SM -RA BR BKN007 FM282200 05015G22KT 3SM RA BR OVC005 FM290100 06016G24KT 1 1/2SM RA BR OVC005 WS018/13040KT FM290400 07011G17KT 2SM RA BR OVC006 WS018/15035KT FM290800 08007KT 2SM -RA BR BKN006 FM291100 11008KT 2SM -RA BR OVC006 FM291500 22008KT 3SM -RA BR OVC008

超过4000个机场的气象观测和天气预报(METAR&TAF报告)。

可查询的气象台以黄色和红色小点在地图上表示。

将鼠标移到小点上方,可查看气象台名称。

然后点击查看天气观测和预报。

如需切换地图:点击带黑十字的绿色按钮放大地图;点击带横线的绿色按钮缩小地图;或者点击绿色箭头查看邻近地区的地图。


METAR-TAF: